Time;durP1;ratioP1;P1;durP2;ratioP2;P2;SDS_P1;SDS_P2;PMS_P1;PMS_P2;Temp;Humidity;BMP_temperature;BMP_pressure;BME280_temperature;BME280_humidity;BME280_pressure;Samples;Min_cycle;Max_cycle;Signal;HPM_P1;HPM_P2
2023/06/23 00:00:09;;;;;;;9.15;4.10;;;;;;;;;;5036615;28;20049;-69
2023/06/23 00:02:36;;;;;;;6.00;2.97;;;;;;;;;;5047876;28;20133;-67
2023/06/23 00:05:03;;;;;;;7.38;3.65;;;;;;;;;;5047084;28;20412;-68
2023/06/23 00:07:30;;;;;;;7.57;3.67;;;;;;;;;;5053722;28;20140;-69
2023/06/23 00:09:56;;;;;;;6.80;3.40;;;;;;;;;;5057526;28;20048;-68
2023/06/23 00:12:25;;;;;;;8.13;3.55;;;;;;;;;;5035108;28;20063;-68
2023/06/23 00:14:51;;;;;;;7.18;3.38;;;;;;;;;;5027088;28;20041;-70
2023/06/23 00:17:18;;;;;;;6.85;3.38;;;;;;;;;;5038231;28;20053;-70
2023/06/23 00:19:44;;;;;;;7.97;3.78;;;;;;;;;;5025466;28;20057;-73
2023/06/23 00:22:11;;;;;;;6.63;3.25;;;;;;;;;;5022149;28;20115;-69
2023/06/23 00:24:37;;;;;;;8.52;3.47;;;;;;;;;;5043854;28;20134;-72
2023/06/23 00:27:04;;;;;;;7.22;3.47;;;;;;;;;;5004264;28;20076;-69
2023/06/23 00:29:32;;;;;;;8.02;4.00;;;;;;;;;;5039698;28;20053;-73
2023/06/23 00:31:59;;;;;;;11.52;3.65;;;;;;;;;;5043221;28;20045;-71
2023/06/23 00:34:25;;;;;;;9.98;3.22;;;;;;;;;;5021639;28;20061;-70
2023/06/23 00:36:52;;;;;;;6.75;3.20;;;;;;;;;;4975639;28;20069;-68
2023/06/23 00:39:18;;;;;;;5.85;3.08;;;;;;;;;;5020134;28;20060;-69
2023/06/23 00:41:45;;;;;;;11.02;3.47;;;;;;;;;;5026006;28;20143;-69
2023/06/23 00:44:12;;;;;;;9.43;3.72;;;;;;;;;;5028021;28;20140;-72
2023/06/23 00:46:43;;;;;;;8.85;3.85;;;;;;;;;;5027842;28;20053;-71
2023/06/23 00:49:10;;;;;;;6.13;3.40;;;;;;;;;;5030992;28;20052;-70
2023/06/23 00:51:36;;;;;;;6.75;3.30;;;;;;;;;;5042361;28;20071;-70
2023/06/23 00:54:04;;;;;;;6.05;3.17;;;;;;;;;;5036214;28;20052;-68
2023/06/23 00:56:31;;;;;;;8.05;3.97;;;;;;;;;;5014827;28;20106;-72
2023/06/23 00:58:58;;;;;;;9.47;3.40;;;;;;;;;;5037580;28;20044;-70
2023/06/23 01:01:25;;;;;;;8.60;3.72;;;;;;;;;;5043432;28;20061;-68
2023/06/23 01:03:54;;;;;;;8.35;3.45;;;;;;;;;;5040854;28;20172;-68
2023/06/23 01:06:24;;;;;;;4.97;2.58;;;;;;;;;;5025627;28;20052;-69
2023/06/23 01:08:58;;;;;;;9.68;3.35;;;;;;;;;;5041270;28;20085;-68
2023/06/23 01:11:27;;;;;;;7.03;3.50;;;;;;;;;;5011044;28;20076;-68
2023/06/23 01:13:56;;;;;;;6.03;3.28;;;;;;;;;;5006020;28;20141;-69
2023/06/23 01:16:31;;;;;;;7.18;3.03;;;;;;;;;;5036933;28;20063;-66
2023/06/23 01:19:03;;;;;;;9.60;3.50;;;;;;;;;;5035425;28;20107;-71
2023/06/23 01:21:32;;;;;;;7.43;3.25;;;;;;;;;;5039683;28;20063;-70
2023/06/23 01:24:08;;;;;;;6.63;3.80;;;;;;;;;;5045128;28;20138;-70
2023/06/23 01:26:43;;;;;;;6.07;3.17;;;;;;;;;;5036644;28;20059;-68
2023/06/23 01:29:12;;;;;;;6.70;2.85;;;;;;;;;;5043454;28;20087;-68
2023/06/23 01:31:44;;;;;;;8.00;3.22;;;;;;;;;;5037073;28;20057;-67
2023/06/23 01:34:15;;;;;;;13.80;3.70;;;;;;;;;;5025102;28;20134;-72
2023/06/23 01:36:43;;;;;;;7.55;2.63;;;;;;;;;;5011067;28;20073;-70
2023/06/23 01:39:12;;;;;;;6.05;2.65;;;;;;;;;;5041182;28;20154;-70
2023/06/23 01:41:42;;;;;;;5.63;2.17;;;;;;;;;;5040920;28;20163;-70
2023/06/23 01:44:13;;;;;;;4.85;2.47;;;;;;;;;;5025042;28;20060;-71
2023/06/23 01:46:43;;;;;;;7.80;4.22;;;;;;;;;;5041372;28;20076;-71
2023/06/23 01:49:12;;;;;;;8.20;3.47;;;;;;;;;;5041474;28;20052;-70
2023/06/23 01:51:41;;;;;;;10.57;4.05;;;;;;;;;;5022560;28;20061;-71
2023/06/23 01:54:08;;;;;;;7.88;3.47;;;;;;;;;;5042513;28;20080;-68
2023/06/23 01:56:36;;;;;;;10.10;4.55;;;;;;;;;;5007459;28;20172;-71
2023/06/23 01:59:03;;;;;;;8.60;3.38;;;;;;;;;;5034272;28;20057;-72
2023/06/23 02:01:31;;;;;;;9.75;4.22;;;;;;;;;;5020772;28;20049;-68
2023/06/23 02:04:00;;;;;;;7.78;3.55;;;;;;;;;;5009629;28;20072;-68
2023/06/23 02:06:28;;;;;;;9.05;3.92;;;;;;;;;;5040235;28;20170;-69
2023/06/23 02:08:54;;;;;;;8.45;4.15;;;;;;;;;;5018132;28;20140;-71
2023/06/23 02:11:22;;;;;;;8.45;4.32;;;;;;;;;;5021528;28;20107;-70
2023/06/23 02:13:50;;;;;;;9.18;4.60;;;;;;;;;;5021797;28;20087;-71
2023/06/23 02:16:17;;;;;;;9.73;5.15;;;;;;;;;;5038199;28;20063;-67
2023/06/23 02:18:44;;;;;;;13.75;5.72;;;;;;;;;;5025104;28;20071;-70
2023/06/23 02:21:13;;;;;;;15.52;6.80;;;;;;;;;;5017386;28;20255;-67
2023/06/23 02:23:40;;;;;;;6.65;3.00;;;;;;;;;;5039474;28;20081;-68
2023/06/23 02:26:07;;;;;;;13.45;6.10;;;;;;;;;;5022508;28;20112;-68
2023/06/23 02:28:34;;;;;;;14.27;6.65;;;;;;;;;;5021072;28;20056;-68
2023/06/23 02:31:01;;;;;;;18.88;8.40;;;;;;;;;;5034634;28;20049;-68
2023/06/23 02:33:27;;;;;;;23.77;11.30;;;;;;;;;;5021987;28;20065;-69
2023/06/23 02:35:54;;;;;;;18.48;8.25;;;;;;;;;;5038890;28;20060;-70
2023/06/23 02:38:24;;;;;;;18.90;8.65;;;;;;;;;;5020579;28;20429;-67
2023/06/23 02:40:50;;;;;;;20.27;10.65;;;;;;;;;;5036158;28;20088;-69
2023/06/23 02:43:18;;;;;;;19.02;9.73;;;;;;;;;;5036460;28;20056;-66
2023/06/23 02:45:47;;;;;;;18.30;9.70;;;;;;;;;;5019501;28;20053;-73
2023/06/23 02:48:16;;;;;;;24.80;11.13;;;;;;;;;;5019785;28;20045;-74
2023/06/23 02:50:42;;;;;;;;;;;;;;;;;;5024579;28;20220;-73
2023/06/23 02:53:11;;;;;;;31.15;13.95;;;;;;;;;;5017578;28;19967;-71
2023/06/23 02:55:41;;;;;;;16.63;6.90;;;;;;;;;;5017048;28;20061;-68
2023/06/23 02:58:10;;;;;;;29.92;12.23;;;;;;;;;;5042059;28;20129;-70
2023/06/23 03:00:37;;;;;;;15.38;8.15;;;;;;;;;;5040724;28;20048;-69
2023/06/23 03:03:05;;;;;;;24.88;12.00;;;;;;;;;;5015653;28;20049;-71
2023/06/23 03:05:32;;;;;;;19.75;10.15;;;;;;;;;;5034421;28;20048;-70
2023/06/23 03:08:00;;;;;;;20.20;9.13;;;;;;;;;;5041997;28;20092;-69
2023/06/23 03:10:27;;;;;;;13.75;6.78;;;;;;;;;;5038371;28;20061;-68
2023/06/23 03:12:59;;;;;;;20.40;9.70;;;;;;;;;;5036243;28;20137;-69
2023/06/23 03:15:26;;;;;;;14.07;7.18;;;;;;;;;;5004313;28;20052;-72
2023/06/23 03:17:54;;;;;;;17.92;8.95;;;;;;;;;;5023912;28;20060;-70
2023/06/23 03:20:24;;;;;;;19.55;8.98;;;;;;;;;;5037993;28;20087;-69
2023/06/23 03:22:53;;;;;;;19.67;10.25;;;;;;;;;;5039337;28;20056;-68
2023/06/23 03:25:22;;;;;;;21.55;9.40;;;;;;;;;;5025279;28;20148;-69
2023/06/23 03:27:50;;;;;;;21.98;9.80;;;;;;;;;;5023039;28;20338;-69
2023/06/23 03:30:20;;;;;;;12.23;5.05;;;;;;;;;;5037103;28;20048;-66
2023/06/23 03:32:50;;;;;;;20.35;9.70;;;;;;;;;;5039812;28;20063;-69
2023/06/23 03:35:25;;;;;;;19.25;9.60;;;;;;;;;;4989076;28;20088;-70
2023/06/23 03:37:55;;;;;;;21.60;9.77;;;;;;;;;;5022375;28;20053;-70
2023/06/23 03:40:22;;;;;;;17.95;9.65;;;;;;;;;;5037930;28;20068;-66
2023/06/23 03:42:52;;;;;;;18.77;9.70;;;;;;;;;;5038499;28;20045;-73
2023/06/23 03:45:21;;;;;;;19.38;9.98;;;;;;;;;;5006615;28;20088;-68
2023/06/23 03:47:48;;;;;;;18.38;8.85;;;;;;;;;;5022368;28;20096;-73
2023/06/23 03:50:18;;;;;;;16.63;7.90;;;;;;;;;;5023489;28;20056;-70
2023/06/23 03:52:45;;;;;;;17.75;8.45;;;;;;;;;;5025289;28;20068;-68
2023/06/23 03:55:13;;;;;;;21.58;10.15;;;;;;;;;;4998075;28;20107;-70
2023/06/23 03:57:42;;;;;;;18.98;8.63;;;;;;;;;;5028386;28;20045;-70
2023/06/23 04:00:09;;;;;;;18.70;9.50;;;;;;;;;;5043756;28;20052;-69
2023/06/23 04:02:38;;;;;;;18.90;10.20;;;;;;;;;;5039874;28;20080;-71
2023/06/23 04:05:12;;;;;;;13.57;7.38;;;;;;;;;;5006528;28;20053;-67
2023/06/23 04:07:39;;;;;;;13.52;7.35;;;;;;;;;;5042476;28;20068;-68
2023/06/23 04:10:06;;;;;;;18.38;8.57;;;;;;;;;;5030820;28;20098;-72
2023/06/23 04:12:36;;;;;;;18.25;9.25;;;;;;;;;;5041959;28;20049;-68
2023/06/23 04:15:12;;;;;;;16.27;8.07;;;;;;;;;;5033918;28;20138;-69
2023/06/23 04:17:41;;;;;;;15.68;8.88;;;;;;;;;;5022921;28;20060;-71
2023/06/23 04:20:11;;;;;;;16.63;8.75;;;;;;;;;;5025804;28;20171;-71
2023/06/23 04:22:38;;;;;;;16.73;9.20;;;;;;;;;;5042078;28;20115;-72
2023/06/23 04:25:06;;;;;;;16.85;7.68;;;;;;;;;;4985978;28;20158;-70
2023/06/23 04:27:33;;;;;;;10.50;5.80;;;;;;;;;;5032690;28;20053;-70
2023/06/23 04:30:00;;;;;;;15.18;7.90;;;;;;;;;;5044357;28;20139;-71
2023/06/23 04:32:30;;;;;;;16.90;7.97;;;;;;;;;;5024595;28;20052;-69
2023/06/23 04:34:59;;;;;;;11.48;5.22;;;;;;;;;;5005708;28;20110;-71
2023/06/23 04:37:27;;;;;;;17.63;7.70;;;;;;;;;;5023295;28;20259;-69
2023/06/23 04:39:57;;;;;;;13.73;7.28;;;;;;;;;;5025055;28;20060;-71
2023/06/23 04:42:25;;;;;;;13.43;6.43;;;;;;;;;;5040968;28;20130;-68
2023/06/23 04:44:56;;;;;;;16.38;8.63;;;;;;;;;;5017615;28;20057;-71
2023/06/23 04:47:25;;;;;;;8.82;4.40;;;;;;;;;;5024793;28;20060;-71
2023/06/23 04:49:53;;;;;;;12.27;6.55;;;;;;;;;;5024849;28;20065;-69
2023/06/23 04:52:22;;;;;;;13.35;6.97;;;;;;;;;;5043764;28;20072;-69
2023/06/23 04:54:51;;;;;;;17.20;7.78;;;;;;;;;;5034442;28;20059;-69
2023/06/23 04:57:21;;;;;;;15.55;8.13;;;;;;;;;;5019917;28;20045;-65
2023/06/23 04:59:49;;;;;;;16.00;8.25;;;;;;;;;;5021425;28;20186;-71
2023/06/23 05:02:17;;;;;;;12.52;6.38;;;;;;;;;;5043662;28;20052;-72
2023/06/23 05:04:44;;;;;;;16.08;8.55;;;;;;;;;;5042355;28;20053;-66
2023/06/23 05:07:12;;;;;;;15.20;8.45;;;;;;;;;;5048800;28;20082;-71
2023/06/23 05:09:43;;;;;;;16.77;7.43;;;;;;;;;;5027398;28;20083;-67
2023/06/23 05:12:11;;;;;;;21.83;10.13;;;;;;;;;;5041745;28;20044;-70
2023/06/23 05:14:38;;;;;;;24.63;12.20;;;;;;;;;;5010110;28;20085;-70
2023/06/23 05:17:05;;;;;;;16.77;7.07;;;;;;;;;;5036040;28;20068;-67
2023/06/23 05:19:32;;;;;;;13.68;7.03;;;;;;;;;;5040193;28;20053;-69
2023/06/23 05:21:59;;;;;;;23.48;10.70;;;;;;;;;;5042677;28;20115;-70
2023/06/23 05:24:26;;;;;;;20.60;9.95;;;;;;;;;;5035602;28;20130;-72
2023/06/23 05:26:56;;;;;;;16.73;8.52;;;;;;;;;;5041705;28;20099;-67
2023/06/23 05:29:25;;;;;;;19.98;10.23;;;;;;;;;;5016399;28;21306;-71
2023/06/23 05:31:52;;;;;;;26.08;12.57;;;;;;;;;;5025200;28;20068;-68
2023/06/23 05:34:19;;;;;;;11.75;5.55;;;;;;;;;;5036896;28;20067;-68
2023/06/23 05:36:47;;;;;;;27.33;11.27;;;;;;;;;;5004189;28;20080;-68
2023/06/23 05:39:16;;;;;;;28.75;12.88;;;;;;;;;;4999177;28;20670;-68
2023/06/23 05:41:42;;;;;;;22.02;9.98;;;;;;;;;;5038965;28;20061;-67
2023/06/23 05:44:10;;;;;;;21.33;9.77;;;;;;;;;;5020308;28;20106;-69
2023/06/23 05:46:39;;;;;;;25.52;12.30;;;;;;;;;;5010162;28;20064;-69
2023/06/23 05:49:07;;;;;;;25.10;11.32;;;;;;;;;;5015514;28;20080;-68
2023/06/23 05:51:34;;;;;;;27.13;12.10;;;;;;;;;;5019974;28;20052;-70
2023/06/23 05:54:02;;;;;;;31.92;14.70;;;;;;;;;;5022401;28;20118;-71
2023/06/23 05:56:33;;;;;;;29.17;12.57;;;;;;;;;;5025633;28;20143;-70
2023/06/23 05:59:02;;;;;;;20.10;9.68;;;;;;;;;;5015928;28;20057;-71
2023/06/23 06:01:33;;;;;;;25.20;10.43;;;;;;;;;;5038905;28;20056;-67
2023/06/23 06:04:02;;;;;;;27.48;12.82;;;;;;;;;;5018059;28;20055;-71
2023/06/23 06:06:28;;;;;;;;;;;;;;;;;;5016649;28;20064;-69
2023/06/23 06:08:57;;;;;;;22.83;11.00;;;;;;;;;;5018564;28;19951;-70
2023/06/23 06:11:25;;;;;;;21.92;10.38;;;;;;;;;;5038361;28;20057;-71
2023/06/23 06:13:52;;;;;;;25.03;12.30;;;;;;;;;;5023162;28;20056;-68
2023/06/23 06:16:19;;;;;;;17.48;8.43;;;;;;;;;;5008367;28;20056;-67
2023/06/23 06:18:49;;;;;;;22.17;9.50;;;;;;;;;;5013680;28;20069;-67
2023/06/23 06:21:16;;;;;;;22.00;10.07;;;;;;;;;;4995800;28;21825;-70
2023/06/23 06:23:44;;;;;;;26.27;10.80;;;;;;;;;;5028891;28;20041;-68
2023/06/23 06:26:11;;;;;;;32.20;14.60;;;;;;;;;;5030944;28;20131;-69
2023/06/23 06:28:39;;;;;;;27.30;14.30;;;;;;;;;;5020437;28;20056;-68
2023/06/23 06:31:07;;;;;;;22.73;10.68;;;;;;;;;;5018236;28;20049;-69
2023/06/23 06:33:34;;;;;;;22.35;9.32;;;;;;;;;;5020925;28;20102;-68
2023/06/23 06:36:04;;;;;;;24.40;10.55;;;;;;;;;;5026140;28;20080;-70
2023/06/23 06:38:34;;;;;;;26.00;11.70;;;;;;;;;;5021347;28;20052;-69
2023/06/23 06:41:02;;;;;;;26.83;13.88;;;;;;;;;;5033463;28;20084;-67
2023/06/23 06:43:29;;;;;;;26.17;12.05;;;;;;;;;;5020220;28;20145;-70
2023/06/23 06:45:56;;;;;;;23.60;11.05;;;;;;;;;;5013250;28;20088;-70
2023/06/23 06:48:23;;;;;;;10.93;6.07;;;;;;;;;;5021584;28;20053;-68
2023/06/23 06:50:53;;;;;;;29.00;13.20;;;;;;;;;;5021207;28;20053;-71
2023/06/23 06:53:21;;;;;;;23.63;10.85;;;;;;;;;;5035152;28;20075;-67
2023/06/23 06:55:48;;;;;;;17.88;8.90;;;;;;;;;;5019959;28;20049;-68
2023/06/23 06:58:15;;;;;;;22.45;10.52;;;;;;;;;;5019293;28;20143;-68
2023/06/23 07:00:43;;;;;;;16.48;9.15;;;;;;;;;;5022829;28;20064;-68
2023/06/23 07:03:10;;;;;;;21.30;10.60;;;;;;;;;;5011765;28;20049;-69
2023/06/23 07:05:36;;;;;;;20.48;10.82;;;;;;;;;;5020243;28;20140;-69
2023/06/23 07:08:03;;;;;;;21.80;10.48;;;;;;;;;;5021373;28;20091;-67
2023/06/23 07:10:31;;;;;;;22.42;10.48;;;;;;;;;;5040337;28;20072;-68
2023/06/23 07:12:58;;;;;;;24.60;12.70;;;;;;;;;;5035508;28;20065;-68
2023/06/23 07:15:24;;;;;;;15.27;7.30;;;;;;;;;;4978094;28;20057;-68
2023/06/23 07:17:51;;;;;;;19.58;9.30;;;;;;;;;;5020154;28;20049;-68
2023/06/23 07:20:17;;;;;;;21.42;9.82;;;;;;;;;;5020116;28;20049;-67
2023/06/23 07:22:45;;;;;;;21.35;10.57;;;;;;;;;;5038786;28;20056;-69
2023/06/23 07:25:12;;;;;;;25.27;12.13;;;;;;;;;;5029950;28;20059;-65
2023/06/23 07:27:40;;;;;;;19.73;10.45;;;;;;;;;;5045756;28;20583;-69
2023/06/23 07:30:07;;;;;;;22.00;9.38;;;;;;;;;;5021833;28;20049;-69
2023/06/23 07:32:34;;;;;;;16.70;6.93;;;;;;;;;;5027401;28;20067;-68
2023/06/23 07:35:00;;;;;;;21.85;7.65;;;;;;;;;;5003456;28;20094;-66
2023/06/23 07:37:27;;;;;;;23.77;10.48;;;;;;;;;;5033937;28;20059;-65
2023/06/23 07:39:53;;;;;;;22.95;9.75;;;;;;;;;;5042172;28;20107;-67
2023/06/23 07:42:20;;;;;;;12.32;6.40;;;;;;;;;;5026596;28;20088;-66
2023/06/23 07:44:50;;;;;;;13.82;7.13;;;;;;;;;;5015620;28;20056;-69
2023/06/23 07:47:17;;;;;;;14.00;7.45;;;;;;;;;;5023054;28;20088;-66
2023/06/23 07:49:43;;;;;;;17.23;8.60;;;;;;;;;;5024601;28;20049;-67
2023/06/23 07:52:10;;;;;;;20.23;9.80;;;;;;;;;;5026824;28;20087;-69
2023/06/23 07:54:37;;;;;;;17.83;8.55;;;;;;;;;;5033127;28;20098;-68
2023/06/23 07:57:07;;;;;;;15.10;6.55;;;;;;;;;;5032999;28;20059;-67
2023/06/23 07:59:34;;;;;;;14.75;7.30;;;;;;;;;;5025337;28;20057;-65
2023/06/23 08:02:02;;;;;;;12.88;6.80;;;;;;;;;;5057111;28;20075;-65
2023/06/23 08:04:28;;;;;;;21.65;12.40;;;;;;;;;;5015826;28;20147;-68
2023/06/23 08:06:55;;;;;;;22.35;10.05;;;;;;;;;;5033327;28;20049;-66
2023/06/23 08:09:21;;;;;;;17.70;9.00;;;;;;;;;;5026141;28;20075;-66
2023/06/23 08:11:48;;;;;;;16.73;9.30;;;;;;;;;;5023851;28;20052;-66
2023/06/23 08:14:14;;;;;;;18.75;9.38;;;;;;;;;;5048610;28;20045;-67
2023/06/23 08:16:41;;;;;;;14.18;7.22;;;;;;;;;;5038686;28;20100;-66
2023/06/23 08:19:10;;;;;;;16.48;8.02;;;;;;;;;;5019220;28;20298;-65
2023/06/23 08:21:36;;;;;;;13.90;7.00;;;;;;;;;;5021868;28;20148;-67
2023/06/23 08:24:03;;;;;;;15.95;7.75;;;;;;;;;;5026751;28;20056;-65
2023/06/23 08:26:29;;;;;;;15.68;7.60;;;;;;;;;;4986077;28;20049;-65
2023/06/23 08:28:56;;;;;;;12.82;6.72;;;;;;;;;;5017710;28;20067;-68
2023/06/23 08:31:23;;;;;;;11.20;5.00;;;;;;;;;;5022875;28;20056;-65
2023/06/23 08:33:49;;;;;;;12.73;6.28;;;;;;;;;;5024849;28;20176;-66
2023/06/23 08:36:20;;;;;;;12.52;7.45;;;;;;;;;;5024321;28;20064;-65
2023/06/23 08:38:48;;;;;;;15.70;6.13;;;;;;;;;;5023627;28;20060;-66
2023/06/23 08:41:15;;;;;;;14.25;7.47;;;;;;;;;;5039605;28;20875;-67
2023/06/23 08:43:44;;;;;;;12.40;7.03;;;;;;;;;;5022100;28;20064;-67
2023/06/23 08:46:15;;;;;;;16.25;8.48;;;;;;;;;;5022993;28;20076;-66
2023/06/23 08:48:45;;;;;;;18.42;8.70;;;;;;;;;;5039990;28;20060;-67
2023/06/23 08:51:11;;;;;;;17.40;8.32;;;;;;;;;;5029945;28;20072;-66
2023/06/23 08:53:40;;;;;;;15.18;7.60;;;;;;;;;;5024625;28;20156;-66
2023/06/23 08:56:07;;;;;;;13.65;6.13;;;;;;;;;;4993388;28;20052;-65
2023/06/23 08:58:34;;;;;;;12.97;7.10;;;;;;;;;;5040983;28;20111;-66
2023/06/23 09:01:00;;;;;;;11.38;5.65;;;;;;;;;;5019144;28;20056;-65
2023/06/23 09:03:27;;;;;;;8.52;4.50;;;;;;;;;;5023006;28;20152;-66
2023/06/23 09:05:53;;;;;;;22.88;6.60;;;;;;;;;;5017052;28;20483;-65
2023/06/23 09:08:20;;;;;;;13.20;5.75;;;;;;;;;;5022719;28;20063;-65
2023/06/23 09:10:49;;;;;;;17.80;4.80;;;;;;;;;;5044948;28;20061;-66
2023/06/23 09:13:20;;;;;;;8.68;4.43;;;;;;;;;;5035117;28;20053;-66
2023/06/23 09:15:48;;;;;;;8.18;3.72;;;;;;;;;;5039467;28;20049;-64
2023/06/23 09:18:15;;;;;;;9.30;5.05;;;;;;;;;;5024212;28;20140;-66
2023/06/23 09:20:42;;;;;;;41.45;21.73;;;;;;;;;;5044362;28;20160;-66
2023/06/23 09:23:08;;;;;;;12.27;5.10;;;;;;;;;;5015501;28;20123;-67
2023/06/23 09:25:38;;;;;;;7.35;3.95;;;;;;;;;;5011472;28;20127;-66
2023/06/23 09:28:08;;;;;;;8.00;3.95;;;;;;;;;;5041840;28;20052;-65
2023/06/23 09:30:35;;;;;;;7.25;3.55;;;;;;;;;;5037139;28;20314;-65
2023/06/23 09:33:04;;;;;;;7.38;4.00;;;;;;;;;;5016196;28;20057;-65
2023/06/23 09:35:30;;;;;;;;;;;;;;;;;;5026866;28;20052;-66
2023/06/23 09:37:57;;;;;;;7.50;3.53;;;;;;;;;;5027048;28;19974;-66
2023/06/23 09:40:26;;;;;;;6.95;3.50;;;;;;;;;;5038722;28;20089;-66
2023/06/23 09:42:57;;;;;;;6.93;3.35;;;;;;;;;;5023443;28;20053;-65
2023/06/23 09:45:25;;;;;;;7.35;3.80;;;;;;;;;;4976566;28;20080;-65
2023/06/23 09:47:51;;;;;;;9.30;3.53;;;;;;;;;;5025359;28;20056;-67
2023/06/23 09:50:20;;;;;;;6.90;3.42;;;;;;;;;;5023069;28;20091;-66
2023/06/23 09:52:47;;;;;;;6.93;3.53;;;;;;;;;;5041836;28;20253;-66
2023/06/23 09:55:14;;;;;;;6.00;2.90;;;;;;;;;;5017560;28;20052;-66
2023/06/23 09:57:40;;;;;;;9.65;3.67;;;;;;;;;;5042306;28;20092;-66
2023/06/23 10:00:08;;;;;;;7.38;3.15;;;;;;;;;;5039759;28;20059;-66
2023/06/23 10:02:39;;;;;;;6.40;3.28;;;;;;;;;;5042595;28;20092;-65
2023/06/23 10:05:08;;;;;;;8.38;3.63;;;;;;;;;;5001765;28;21026;-66
2023/06/23 10:07:38;;;;;;;6.15;2.92;;;;;;;;;;5030723;28;20071;-66
2023/06/23 10:10:08;;;;;;;6.82;3.00;;;;;;;;;;5037938;28;20060;-66
2023/06/23 10:12:37;;;;;;;5.90;3.05;;;;;;;;;;5025683;28;20045;-66
2023/06/23 10:15:09;;;;;;;9.20;3.10;;;;;;;;;;5031706;28;20136;-68
2023/06/23 10:17:37;;;;;;;7.15;3.05;;;;;;;;;;5021641;28;20140;-66
2023/06/23 10:20:05;;;;;;;7.53;3.78;;;;;;;;;;5023571;28;20056;-67
2023/06/23 10:22:32;;;;;;;4.80;2.40;;;;;;;;;;5022327;28;20048;-68
2023/06/23 10:25:01;;;;;;;6.78;3.00;;;;;;;;;;5004812;28;20053;-67
2023/06/23 10:27:29;;;;;;;6.60;3.50;;;;;;;;;;5037444;28;20063;-68
2023/06/23 10:29:57;;;;;;;15.05;3.60;;;;;;;;;;5022637;28;20361;-66
2023/06/23 10:32:25;;;;;;;9.75;4.45;;;;;;;;;;5021776;28;20057;-66
2023/06/23 10:34:52;;;;;;;;;;;;;;;;;;5021777;28;20057;-65
2023/06/23 10:37:22;;;;;;;9.15;4.85;;;;;;;;;;5004745;28;19925;-67
2023/06/23 10:39:50;;;;;;;9.35;4.15;;;;;;;;;;5022198;28;20067;-67
2023/06/23 10:42:17;;;;;;;11.98;3.90;;;;;;;;;;5039218;28;20065;-67
2023/06/23 10:44:44;;;;;;;6.85;3.63;;;;;;;;;;5039760;28;20060;-67
2023/06/23 10:47:10;;;;;;;6.25;2.80;;;;;;;;;;5017643;28;20118;-64
2023/06/23 10:49:37;;;;;;;4.90;2.28;;;;;;;;;;5023952;28;20092;-64
2023/06/23 10:52:04;;;;;;;5.88;2.83;;;;;;;;;;5019845;28;20056;-65
2023/06/23 10:54:32;;;;;;;7.38;2.83;;;;;;;;;;5040362;28;20072;-64
2023/06/23 10:57:00;;;;;;;6.90;2.92;;;;;;;;;;5014605;28;20126;-65
2023/06/23 10:59:28;;;;;;;5.00;2.80;;;;;;;;;;5040573;28;20067;-65
2023/06/23 11:02:19;;;;;;;7.22;2.90;;;;;;;;;;5019809;28;20087;-63
2023/06/23 11:04:53;;;;;;;7.38;3.28;;;;;;;;;;4983243;28;20053;-66
2023/06/23 11:07:20;;;;;;;7.07;3.00;;;;;;;;;;5004510;28;21805;-66
2023/06/23 11:09:54;;;;;;;5.75;2.40;;;;;;;;;;5040596;28;20065;-65
2023/06/23 11:12:30;;;;;;;4.30;2.03;;;;;;;;;;5040130;28;20064;-66
2023/06/23 11:15:01;;;;;;;5.90;2.60;;;;;;;;;;4997426;28;20069;-66
2023/06/23 11:17:27;;;;;;;5.40;2.20;;;;;;;;;;5004894;28;20122;-65
2023/06/23 11:19:54;;;;;;;5.25;2.20;;;;;;;;;;5019934;28;20110;-66
2023/06/23 11:22:22;;;;;;;3.92;1.80;;;;;;;;;;5024319;28;20059;-66
2023/06/23 11:24:57;;;;;;;4.50;2.03;;;;;;;;;;5026738;28;20057;-65
2023/06/23 11:27:23;;;;;;;4.18;2.03;;;;;;;;;;5020624;28;20056;-66
2023/06/23 11:30:10;;;;;;;6.22;2.40;;;;;;;;;;5035225;28;20143;-65
2023/06/23 11:32:37;;;;;;;5.53;2.10;;;;;;;;;;5024218;28;20116;-65
2023/06/23 11:35:04;;;;;;;3.95;1.85;;;;;;;;;;5017501;28;20053;-65
2023/06/23 11:37:31;;;;;;;5.18;2.30;;;;;;;;;;5027638;28;20061;-65
2023/06/23 11:40:00;;;;;;;11.80;6.50;;;;;;;;;;5020707;28;20067;-66
2023/06/23 11:42:27;;;;;;;5.75;2.40;;;;;;;;;;5041098;28;20359;-66
2023/06/23 11:44:55;;;;;;;5.60;2.40;;;;;;;;;;5032134;28;20061;-66
2023/06/23 11:47:21;;;;;;;;;;;;;;;;;;5039634;28;20048;-65
2023/06/23 11:49:48;;;;;;;3.08;1.65;;;;;;;;;;5016443;28;19947;-66
2023/06/23 11:52:14;;;;;;;4.85;1.90;;;;;;;;;;5022264;28;20053;-65
2023/06/23 11:54:42;;;;;;;5.25;2.40;;;;;;;;;;5037583;28;20067;-66
2023/06/23 11:57:10;;;;;;;5.13;2.15;;;;;;;;;;5015620;28;20348;-66
2023/06/23 11:59:37;;;;;;;5.20;1.92;;;;;;;;;;5019356;28;20061;-66
2023/06/23 12:02:04;;;;;;;6.03;2.05;;;;;;;;;;5019418;28;20132;-66
2023/06/23 12:04:31;;;;;;;5.35;2.08;;;;;;;;;;5017958;28;20123;-66
2023/06/23 12:06:58;;;;;;;4.28;1.88;;;;;;;;;;4984220;28;20104;-66
2023/06/23 12:09:24;;;;;;;5.57;1.98;;;;;;;;;;5017557;28;20152;-67
2023/06/23 12:11:52;;;;;;;9.85;2.25;;;;;;;;;;5019621;28;20061;-67
2023/06/23 12:14:27;;;;;;;6.70;2.10;;;;;;;;;;5022560;28;20065;-67
2023/06/23 12:16:53;;;;;;;4.40;2.05;;;;;;;;;;4996812;28;20064;-67
2023/06/23 12:19:21;;;;;;;4.53;1.85;;;;;;;;;;5022780;28;20082;-67
2023/06/23 12:21:49;;;;;;;6.95;2.60;;;;;;;;;;5021862;28;20138;-67
2023/06/23 12:24:15;;;;;;;4.63;1.87;;;;;;;;;;5024900;28;20061;-67
2023/06/23 12:26:41;;;;;;;4.78;2.17;;;;;;;;;;5018718;28;20057;-66
2023/06/23 12:29:09;;;;;;;4.80;2.40;;;;;;;;;;5016747;28;20057;-66
2023/06/23 12:31:37;;;;;;;5.75;2.13;;;;;;;;;;5020581;28;20057;-66
2023/06/23 12:34:04;;;;;;;5.53;1.90;;;;;;;;;;5024118;28;20069;-66
2023/06/23 12:36:31;;;;;;;6.03;2.40;;;;;;;;;;5016826;28;20167;-66
2023/06/23 12:38:58;;;;;;;4.60;2.03;;;;;;;;;;5017363;28;20072;-66
2023/06/23 12:41:26;;;;;;;7.47;2.30;;;;;;;;;;5021631;28;20084;-66
2023/06/23 12:43:54;;;;;;;4.38;2.17;;;;;;;;;;5021519;28;20064;-65
2023/06/23 12:46:23;;;;;;;4.78;2.17;;;;;;;;;;5019532;28;20088;-66
2023/06/23 12:48:54;;;;;;;7.70;2.55;;;;;;;;;;5019705;28;20303;-67
2023/06/23 12:51:31;;;;;;;4.75;2.05;;;;;;;;;;5021351;28;20057;-66
2023/06/23 12:53:57;;;;;;;5.88;2.38;;;;;;;;;;5003646;28;20104;-66
2023/06/23 12:56:23;;;;;;;6.63;2.40;;;;;;;;;;4991569;28;20070;-66
2023/06/23 12:58:50;;;;;;;4.40;1.92;;;;;;;;;;5016395;28;20064;-66
2023/06/23 13:01:17;;;;;;;4.30;2.00;;;;;;;;;;5024459;28;20097;-67
2023/06/23 13:03:43;;;;;;;7.85;2.60;;;;;;;;;;5021962;28;20111;-66
2023/06/23 13:06:11;;;;;;;7.07;2.55;;;;;;;;;;5040897;28;20060;-65
2023/06/23 13:08:38;;;;;;;8.93;2.25;;;;;;;;;;5039207;28;20071;-65
2023/06/23 13:11:04;;;;;;;5.82;2.40;;;;;;;;;;5020571;28;20060;-66
2023/06/23 13:13:31;;;;;;;4.00;2.05;;;;;;;;;;5021737;28;20075;-65
2023/06/23 13:15:58;;;;;;;4.57;2.20;;;;;;;;;;5005271;28;20068;-66
2023/06/23 13:18:25;;;;;;;;;;;;;;;;;;5044714;28;20106;-65
2023/06/23 13:20:52;;;;;;;4.57;2.20;;;;;;;;;;5037748;28;19921;-67
2023/06/23 13:23:20;;;;;;;3.75;1.98;;;;;;;;;;5037768;28;20068;-65
2023/06/23 13:25:47;;;;;;;6.63;2.20;;;;;;;;;;5044653;28;20053;-66
2023/06/23 13:28:13;;;;;;;4.18;1.95;;;;;;;;;;5045348;28;20057;-66
2023/06/23 13:30:40;;;;;;;5.53;2.20;;;;;;;;;;5042478;28;20057;-65
2023/06/23 13:33:06;;;;;;;5.72;2.58;;;;;;;;;;5014716;28;20274;-66
2023/06/23 13:35:34;;;;;;;4.80;2.03;;;;;;;;;;5022409;28;20060;-65
2023/06/23 13:38:00;;;;;;;4.50;2.40;;;;;;;;;;5042392;28;20060;-66
2023/06/23 13:40:28;;;;;;;5.18;2.50;;;;;;;;;;5021917;28;20060;-67
2023/06/23 13:42:54;;;;;;;4.82;2.45;;;;;;;;;;5022093;28;20110;-66
2023/06/23 13:45:21;;;;;;;5.32;2.10;;;;;;;;;;5037115;28;20059;-66
2023/06/23 13:47:47;;;;;;;4.80;2.03;;;;;;;;;;5042602;28;20116;-65
2023/06/23 13:50:14;;;;;;;5.07;2.55;;;;;;;;;;5020897;28;20056;-65
2023/06/23 13:52:41;;;;;;;4.07;2.03;;;;;;;;;;5024077;28;20061;-65
2023/06/23 13:55:09;;;;;;;4.57;2.22;;;;;;;;;;5011792;28;20053;-66
2023/06/23 13:57:37;;;;;;;4.43;2.20;;;;;;;;;;5038989;28;20067;-66
2023/06/23 14:00:04;;;;;;;6.03;2.42;;;;;;;;;;5038745;28;20060;-66
2023/06/23 14:02:31;;;;;;;6.53;2.60;;;;;;;;;;5042562;28;20060;-65
2023/06/23 14:04:58;;;;;;;4.07;2.10;;;;;;;;;;5025031;28;20130;-67
2023/06/23 14:07:24;;;;;;;6.70;2.42;;;;;;;;;;5021474;28;20071;-65
2023/06/23 14:09:51;;;;;;;5.60;2.63;;;;;;;;;;5040301;28;20049;-65
2023/06/23 14:12:17;;;;;;;5.18;2.38;;;;;;;;;;5042700;28;20148;-65
2023/06/23 14:14:45;;;;;;;4.35;2.30;;;;;;;;;;5039166;28;20067;-66
2023/06/23 14:17:12;;;;;;;4.35;2.00;;;;;;;;;;5015185;28;21147;-65
2023/06/23 14:19:38;;;;;;;6.05;2.70;;;;;;;;;;5042222;28;20080;-66
2023/06/23 14:22:05;;;;;;;7.40;2.55;;;;;;;;;;5038505;28;20060;-65
2023/06/23 14:24:34;;;;;;;5.03;2.38;;;;;;;;;;5025188;28;20139;-65
2023/06/23 14:27:00;;;;;;;6.20;2.50;;;;;;;;;;4996440;28;20056;-65
2023/06/23 14:29:27;;;;;;;5.38;2.35;;;;;;;;;;5041965;28;20065;-65
2023/06/23 14:31:55;;;;;;;5.53;2.30;;;;;;;;;;5020588;28;20057;-65
2023/06/23 14:34:21;;;;;;;;;;;;;;;;;;5038609;28;20072;-66
2023/06/23 14:36:49;;;;;;;5.63;2.30;;;;;;;;;;5027338;28;19983;-66
2023/06/23 14:39:17;;;;;;;5.95;2.72;;;;;;;;;;5037275;28;20084;-65